createdAt,value
2019-01-10T00:00:07.849Z,4.10
2019-01-10T00:02:38.340Z,4.20
2019-01-10T00:05:09.919Z,4.20
2019-01-10T00:07:40.487Z,4.10
2019-01-10T00:10:13.800Z,4.13
2019-01-10T00:12:43.473Z,4.30
2019-01-10T00:15:16.252Z,4.37
2019-01-10T00:17:46.892Z,4.67
2019-01-10T00:20:17.560Z,4.20
2019-01-10T00:22:47.943Z,4.63
2019-01-10T00:25:18.401Z,3.87
2019-01-10T00:27:49.011Z,3.70
2019-01-10T00:30:19.548Z,4.40
2019-01-10T00:32:49.363Z,4.30
2019-01-10T00:35:19.687Z,4.10
2019-01-10T00:37:50.173Z,4.70
2019-01-10T00:40:20.603Z,5.00
2019-01-10T00:42:50.855Z,4.20
2019-01-10T00:45:21.077Z,4.40
2019-01-10T00:47:51.629Z,4.30
2019-01-10T00:50:24.210Z,4.40
2019-01-10T00:52:55.041Z,4.60
2019-01-10T00:55:25.360Z,4.70
2019-01-10T00:57:55.544Z,4.27
2019-01-10T01:00:27.927Z,4.73
2019-01-10T01:02:58.241Z,4.80
2019-01-10T01:05:28.681Z,4.50
2019-01-10T01:07:59.091Z,4.77
2019-01-10T01:10:29.915Z,4.83
2019-01-10T01:13:00.463Z,4.83
2019-01-10T01:15:31.074Z,4.90
2019-01-10T01:18:01.356Z,4.80
2019-01-10T01:20:31.963Z,4.70
2019-01-10T01:23:02.542Z,4.97
2019-01-10T01:25:33.119Z,4.83
2019-01-10T01:28:03.733Z,4.67
2019-01-10T01:30:33.903Z,4.80
2019-01-10T01:33:04.109Z,4.50
2019-01-10T01:35:34.688Z,4.60
2019-01-10T01:38:04.603Z,5.10
2019-01-10T01:40:34.945Z,5.30
2019-01-10T01:43:07.447Z,5.10
2019-01-10T01:45:37.543Z,4.87
2019-01-10T01:48:08.125Z,5.30
2019-01-10T01:50:38.643Z,5.50
2019-01-10T01:53:08.945Z,5.50
2019-01-10T01:55:39.495Z,6.30
2019-01-10T01:58:09.379Z,5.60
2019-01-10T02:00:58.743Z,6.37
2019-01-10T02:03:29.389Z,5.33
2019-01-10T02:05:59.857Z,5.90
2019-01-10T02:08:30.439Z,5.73
2019-01-10T02:11:01.101Z,6.07
2019-01-10T02:13:31.615Z,5.47
2019-01-10T02:16:02.085Z,5.53
2019-01-10T02:18:32.209Z,6.10
2019-01-10T02:21:02.907Z,5.57
2019-01-10T02:23:33.471Z,5.57
2019-01-10T02:26:03.680Z,5.77
2019-01-10T02:28:33.879Z,5.60
2019-01-10T02:31:04.019Z,5.90
2019-01-10T02:33:34.101Z,5.47
2019-01-10T02:36:04.766Z,5.77
2019-01-10T02:38:35.231Z,6.50
2019-01-10T02:41:05.108Z,5.87
2019-01-10T02:43:35.428Z,5.93
2019-01-10T02:46:05.253Z,5.77
2019-01-10T02:48:35.422Z,5.53
2019-01-10T02:51:05.837Z,5.83
2019-01-10T02:53:36.460Z,5.97
2019-01-10T02:56:07.125Z,5.87
2019-01-10T02:58:37.894Z,7.00
2019-01-10T03:01:08.375Z,6.20
2019-01-10T03:03:57.387Z,6.73
2019-01-10T03:06:27.876Z,6.03
2019-01-10T03:08:58.555Z,6.20
2019-01-10T03:11:28.983Z,6.40
2019-01-10T03:13:59.207Z,6.40
2019-01-10T03:16:29.640Z,6.97
2019-01-10T03:18:59.807Z,6.20
2019-01-10T03:21:30.350Z,6.17
2019-01-10T03:24:19.753Z,6.13
2019-01-10T03:26:49.576Z,5.97
2019-01-10T03:29:20.149Z,6.13
2019-01-10T03:31:50.874Z,5.57
2019-01-10T03:34:21.520Z,5.80
2019-01-10T03:36:51.477Z,6.10
2019-01-10T03:39:22.201Z,6.77
2019-01-10T03:41:52.796Z,5.60
2019-01-10T03:44:22.577Z,5.67
2019-01-10T03:46:53.199Z,5.80
2019-01-10T03:49:23.679Z,4.90
2019-01-10T03:51:53.881Z,5.67
2019-01-10T03:54:24.605Z,5.37
2019-01-10T03:56:54.808Z,5.40
2019-01-10T03:59:25.353Z,4.90
2019-01-10T04:02:14.726Z,5.50
2019-01-10T04:04:44.871Z,5.20
2019-01-10T04:07:14.804Z,5.33
2019-01-10T04:09:44.938Z,4.90
2019-01-10T04:12:15.647Z,5.70
2019-01-10T04:14:46.355Z,5.50
2019-01-10T04:17:16.880Z,5.40
2019-01-10T04:19:47.426Z,5.40
2019-01-10T04:22:18.013Z,5.90
2019-01-10T04:24:48.587Z,4.80
2019-01-10T04:27:18.971Z,5.27
2019-01-10T04:29:49.448Z,5.53
2019-01-10T04:32:19.671Z,5.10
2019-01-10T04:34:50.244Z,5.53
2019-01-10T04:37:20.900Z,4.50
2019-01-10T04:39:51.168Z,4.97
2019-01-10T04:42:21.938Z,4.67
2019-01-10T04:44:52.721Z,5.00
2019-01-10T04:47:23.223Z,4.47
2019-01-10T04:49:53.754Z,4.70
2019-01-10T04:52:24.137Z,4.90
2019-01-10T04:54:56.120Z,4.07
2019-01-10T04:57:26.704Z,4.03
2019-01-10T04:59:57.191Z,4.67
2019-01-10T05:02:27.619Z,4.37
2019-01-10T05:04:58.115Z,4.93
2019-01-10T05:07:28.343Z,4.50
2019-01-10T05:09:58.521Z,4.77
2019-01-10T05:12:29.214Z,4.43
2019-01-10T05:14:59.780Z,5.07
2019-01-10T05:17:30.463Z,4.43
2019-01-10T05:20:01.124Z,4.80
2019-01-10T05:22:31.583Z,5.30
2019-01-10T05:25:01.838Z,5.37
2019-01-10T05:27:32.167Z,4.63
2019-01-10T05:30:02.844Z,4.43
2019-01-10T05:32:33.471Z,4.70
2019-01-10T05:35:04.047Z,5.30
2019-01-10T05:37:34.015Z,5.10
2019-01-10T05:40:04.897Z,4.87
2019-01-10T05:42:35.132Z,4.80
2019-01-10T05:45:05.818Z,5.10
2019-01-10T05:47:35.987Z,5.20
2019-01-10T05:50:08.768Z,4.97
2019-01-10T05:52:38.720Z,5.60
2019-01-10T05:55:11.105Z,4.70
2019-01-10T05:57:41.720Z,4.70
2019-01-10T06:00:16.079Z,4.80
2019-01-10T06:02:45.637Z,5.00
2019-01-10T06:05:17.278Z,5.33
2019-01-10T06:07:47.929Z,5.00
2019-01-10T06:10:22.053Z,4.90
2019-01-10T06:12:52.735Z,5.00
2019-01-10T06:15:25.044Z,4.60
2019-01-10T06:18:06.895Z,5.10
2019-01-10T06:20:37.505Z,5.20
2019-01-10T06:23:07.730Z,5.27
2019-01-10T06:25:38.364Z,5.40
2019-01-10T06:28:08.696Z,5.13
2019-01-10T06:30:39.202Z,5.53
2019-01-10T06:33:09.141Z,5.20
2019-01-10T06:35:39.806Z,5.07
2019-01-10T06:38:10.479Z,4.53
2019-01-10T06:40:40.635Z,5.03
2019-01-10T06:43:10.889Z,5.20
2019-01-10T06:45:41.183Z,4.47
2019-01-10T06:48:11.465Z,4.57
2019-01-10T06:50:42.151Z,5.00
2019-01-10T06:53:12.651Z,5.13
2019-01-10T06:55:42.686Z,4.63
2019-01-10T06:58:13.319Z,5.53
2019-01-10T07:00:43.665Z,5.30
2019-01-10T07:03:14.173Z,5.27
2019-01-10T07:05:44.679Z,5.13
2019-01-10T07:08:15.249Z,5.30
2019-01-10T07:10:45.815Z,5.13
2019-01-10T07:13:34.746Z,5.37
2019-01-10T07:16:05.009Z,6.03
2019-01-10T07:18:35.441Z,5.73
2019-01-10T07:21:06.224Z,5.83
2019-01-10T07:23:36.720Z,5.40
2019-01-10T07:26:07.291Z,6.53
2019-01-10T07:28:37.593Z,5.97
2019-01-10T07:31:28.311Z,5.83
2019-01-10T07:34:05.012Z,6.33
2019-01-10T07:36:35.537Z,5.57
2019-01-10T07:39:09.007Z,5.73
2019-01-10T07:41:42.008Z,6.03
2019-01-10T07:44:12.184Z,6.30
2019-01-10T07:46:47.551Z,5.70
2019-01-10T07:49:21.657Z,5.77
2019-01-10T07:51:51.807Z,6.73
2019-01-10T07:54:22.391Z,7.33
2019-01-10T07:56:52.635Z,5.70
2019-01-10T07:59:22.921Z,5.73
2019-01-10T08:01:53.471Z,6.03
2019-01-10T08:04:24.105Z,6.50
2019-01-10T08:06:54.791Z,6.67
2019-01-10T08:09:25.107Z,5.83
2019-01-10T08:12:00.684Z,5.90
2019-01-10T08:14:27.933Z,6.57
2019-01-10T08:16:58.393Z,6.30
2019-01-10T08:19:28.924Z,6.30
2019-01-10T08:21:59.503Z,6.83
2019-01-10T08:24:29.989Z,5.63
2019-01-10T08:27:00.632Z,6.13
2019-01-10T08:29:30.741Z,5.23
2019-01-10T08:32:04.216Z,5.83
2019-01-10T08:34:34.488Z,6.57
2019-01-10T08:37:05.099Z,6.83
2019-01-10T08:39:35.082Z,7.13
2019-01-10T08:42:05.304Z,6.13
2019-01-10T08:44:38.314Z,6.43
2019-01-10T08:47:08.962Z,7.20
2019-01-10T08:49:39.617Z,7.97
2019-01-10T08:52:09.992Z,7.77
2019-01-10T08:54:43.229Z,7.00
2019-01-10T08:57:13.532Z,7.73
2019-01-10T08:59:43.965Z,6.70
2019-01-10T09:02:14.427Z,6.33
2019-01-10T09:04:44.699Z,6.43
2019-01-10T09:07:14.923Z,6.47
2019-01-10T09:09:45.089Z,6.90
2019-01-10T09:12:15.394Z,6.03
2019-01-10T09:14:45.563Z,5.83
2019-01-10T09:17:16.085Z,5.90
2019-01-10T09:19:46.661Z,6.97
2019-01-10T09:22:17.115Z,6.10
2019-01-10T09:24:47.010Z,5.90
2019-01-10T09:27:17.587Z,7.07
2019-01-10T09:29:47.799Z,5.63
2019-01-10T09:32:23.860Z,5.93
2019-01-10T09:34:54.382Z,6.33
2019-01-10T09:37:24.590Z,6.00
2019-01-10T09:39:54.704Z,5.93
2019-01-10T09:42:24.879Z,5.37
2019-01-10T09:44:55.173Z,5.03
2019-01-10T09:47:25.731Z,6.13
2019-01-10T09:49:55.652Z,5.80
2019-01-10T09:52:25.932Z,5.60
2019-01-10T09:54:56.032Z,5.53
2019-01-10T09:57:26.513Z,6.10
2019-01-10T09:59:57.039Z,5.10
2019-01-10T10:02:27.173Z,5.03
2019-01-10T10:04:57.427Z,6.07
2019-01-10T10:07:28.097Z,5.03
2019-01-10T10:09:58.274Z,5.70
2019-01-10T10:12:28.418Z,5.70
2019-01-10T10:14:58.938Z,6.03
2019-01-10T10:17:29.227Z,5.37
2019-01-10T10:19:59.685Z,5.20
2019-01-10T10:22:29.548Z,4.97
2019-01-10T10:25:00.083Z,5.30
2019-01-10T10:27:30.795Z,4.83
2019-01-10T10:30:03.589Z,6.17
2019-01-10T10:32:33.512Z,5.00
2019-01-10T10:35:03.748Z,5.30
2019-01-10T10:37:33.919Z,6.13
2019-01-10T10:40:05.071Z,6.20
2019-01-10T10:42:35.335Z,5.40
2019-01-10T10:45:06.121Z,4.80
2019-01-10T10:47:36.692Z,5.07
2019-01-10T10:50:08.811Z,6.13
2019-01-10T10:52:39.318Z,5.87
2019-01-10T10:55:09.688Z,4.03
2019-01-10T10:57:40.259Z,4.07
2019-01-10T11:00:14.081Z,4.57
2019-01-10T11:02:44.932Z,4.70
2019-01-10T11:05:15.287Z,4.60
2019-01-10T11:07:45.730Z,4.23
2019-01-10T11:10:17.267Z,4.63
2019-01-10T11:12:47.307Z,4.30
2019-01-10T11:15:18.166Z,4.43
2019-01-10T11:17:49.435Z,4.87
2019-01-10T11:20:21.608Z,5.97
2019-01-10T11:22:53.262Z,5.60
2019-01-10T11:25:28.225Z,5.00
2019-01-10T11:27:58.499Z,4.53
2019-01-10T11:30:29.640Z,5.83
2019-01-10T11:32:59.896Z,4.30
2019-01-10T11:35:30.353Z,4.63
2019-01-10T11:38:00.629Z,5.17
2019-01-10T11:40:31.223Z,4.53
2019-01-10T11:43:01.670Z,4.20
2019-01-10T11:45:31.655Z,4.40
2019-01-10T11:48:01.821Z,4.63
2019-01-10T11:50:32.374Z,4.53
2019-01-10T11:53:02.976Z,4.60
2019-01-10T11:55:34.383Z,7.53
2019-01-10T11:58:04.650Z,5.90
2019-01-10T12:00:35.874Z,5.60
2019-01-10T12:03:07.762Z,5.37
2019-01-10T12:05:47.679Z,13.80
2019-01-10T12:08:12.762Z,6.90
2019-01-10T12:10:42.944Z,4.80
2019-01-10T12:13:13.620Z,4.27
2019-01-10T12:15:43.842Z,3.93
2019-01-10T12:18:14.563Z,3.43
2019-01-10T12:20:45.132Z,3.73
2019-01-10T12:23:16.857Z,4.30
2019-01-10T12:26:06.238Z,5.37
2019-01-10T12:28:36.574Z,5.93
2019-01-10T12:31:06.730Z,4.47
2019-01-10T12:33:37.266Z,6.07
2019-01-10T12:36:07.532Z,5.27
2019-01-10T12:38:37.706Z,5.70
2019-01-10T12:41:08.320Z,6.47
2019-01-10T12:43:38.832Z,8.83
2019-01-10T12:46:09.175Z,7.10
2019-01-10T12:48:39.640Z,4.53
2019-01-10T12:51:10.498Z,5.60
2019-01-10T12:53:40.960Z,5.20
2019-01-10T12:56:11.424Z,5.57
2019-01-10T12:58:42.027Z,6.73
2019-01-10T13:01:12.514Z,5.40
2019-01-10T13:03:42.442Z,5.40
2019-01-10T13:06:13.619Z,5.80
2019-01-10T13:08:44.102Z,5.10
2019-01-10T13:11:14.058Z,5.37
2019-01-10T13:13:44.819Z,5.40
2019-01-10T13:16:15.072Z,5.20
2019-01-10T13:18:45.458Z,4.60
2019-01-10T13:21:16.042Z,5.20
2019-01-10T13:23:46.178Z,5.00
2019-01-10T13:26:16.561Z,5.30
2019-01-10T13:28:47.214Z,4.80
2019-01-10T13:31:17.728Z,4.93
2019-01-10T13:33:47.941Z,4.90
2019-01-10T13:36:18.468Z,5.33
2019-01-10T13:38:49.094Z,5.53
2019-01-10T13:41:19.410Z,5.10
2019-01-10T13:43:49.596Z,4.80
2019-01-10T13:46:20.184Z,5.87
2019-01-10T13:48:51.647Z,5.90
2019-01-10T13:51:22.008Z,8.23
2019-01-10T13:53:52.610Z,5.13
2019-01-10T13:56:23.186Z,5.90
2019-01-10T13:58:53.858Z,4.90
2019-01-10T14:01:24.434Z,4.70
2019-01-10T14:03:55.130Z,5.00
2019-01-10T14:06:25.675Z,6.10
2019-01-10T14:08:56.296Z,5.93
2019-01-10T14:11:26.110Z,5.70
2019-01-10T14:13:55.924Z,4.93
2019-01-10T14:16:26.556Z,5.30
2019-01-10T14:18:56.377Z,4.90
2019-01-10T14:21:27.032Z,5.87
2019-01-10T14:23:57.670Z,5.77
2019-01-10T14:26:27.904Z,4.90
2019-01-10T14:28:58.436Z,5.70
2019-01-10T14:31:29.188Z,5.13
2019-01-10T14:33:59.421Z,4.67
2019-01-10T14:36:29.280Z,5.40
2019-01-10T14:38:59.628Z,4.87
2019-01-10T14:41:30.200Z,5.80
2019-01-10T14:44:00.722Z,8.43
2019-01-10T14:46:31.126Z,5.57
2019-01-10T14:49:01.273Z,5.07
2019-01-10T14:51:31.407Z,5.00
2019-01-10T14:54:01.764Z,5.47
2019-01-10T14:56:32.260Z,11.70
2019-01-10T14:59:02.678Z,7.23
2019-01-10T15:01:33.154Z,6.40
2019-01-10T15:04:03.802Z,6.70
2019-01-10T15:06:34.275Z,6.20
2019-01-10T15:09:06.298Z,6.30
2019-01-10T15:11:36.936Z,8.10
2019-01-10T15:14:07.671Z,4.93
2019-01-10T15:16:38.137Z,4.53
2019-01-10T15:19:08.632Z,5.50
2019-01-10T15:21:39.106Z,5.10
2019-01-10T15:24:09.550Z,4.70
2019-01-10T15:26:40.190Z,5.57
2019-01-10T15:29:29.057Z,5.30
2019-01-10T15:31:59.314Z,4.73
2019-01-10T15:34:29.855Z,5.03
2019-01-10T15:37:00.380Z,5.30
2019-01-10T15:39:30.878Z,4.77
2019-01-10T15:42:01.570Z,4.90
2019-01-10T15:44:31.770Z,4.80
2019-01-10T15:47:02.064Z,3.70
2019-01-10T15:49:51.450Z,5.30
2019-01-10T15:52:21.630Z,6.97
2019-01-10T15:54:51.886Z,9.80
2019-01-10T15:57:21.808Z,9.70
2019-01-10T15:59:52.036Z,6.30
2019-01-10T16:02:22.537Z,5.40
2019-01-10T16:04:52.878Z,5.27
2019-01-10T16:07:23.217Z,5.53
2019-01-10T16:09:54.012Z,5.53
2019-01-10T16:12:24.569Z,5.40
2019-01-10T16:14:54.536Z,5.90
2019-01-10T16:17:25.699Z,5.10
2019-01-10T16:19:56.354Z,4.70
2019-01-10T16:22:26.736Z,5.27
2019-01-10T16:24:56.944Z,5.67
2019-01-10T16:27:27.416Z,5.77
2019-01-10T16:29:57.593Z,6.57
2019-01-10T16:32:27.782Z,7.83
2019-01-10T16:34:58.569Z,5.70
2019-01-10T16:37:29.308Z,6.07
2019-01-10T16:39:59.475Z,6.13
2019-01-10T16:42:30.062Z,6.97
2019-01-10T16:45:00.655Z,7.80
2019-01-10T16:47:31.709Z,6.70
2019-01-10T16:50:02.434Z,7.23
2019-01-10T16:52:32.726Z,6.70
2019-01-10T16:55:02.698Z,6.37
2019-01-10T16:57:33.286Z,6.20
2019-01-10T17:00:04.060Z,5.73
2019-01-10T17:02:36.262Z,5.60
2019-01-10T17:05:06.682Z,6.20
2019-01-10T17:07:36.608Z,6.27
2019-01-10T17:10:07.452Z,5.77
2019-01-10T17:12:37.722Z,5.40
2019-01-10T17:15:07.564Z,5.30
2019-01-10T17:17:37.958Z,5.10
2019-01-10T17:20:10.172Z,4.53
2019-01-10T17:22:40.520Z,5.13
2019-01-10T17:25:10.994Z,5.27
2019-01-10T17:27:41.212Z,7.00
2019-01-10T17:30:31.456Z,7.37
2019-01-10T17:33:01.586Z,7.10
2019-01-10T17:35:33.656Z,11.37
2019-01-10T17:38:04.367Z,12.33
2019-01-10T17:40:34.682Z,13.27
2019-01-10T17:43:05.689Z,15.97
2019-01-10T17:45:37.279Z,15.40
2019-01-10T17:48:09.746Z,7.90
2019-01-10T17:50:39.977Z,7.23
2019-01-10T17:53:10.552Z,4.63
2019-01-10T17:55:41.149Z,5.30
2019-01-10T17:58:11.631Z,4.40
2019-01-10T18:00:42.279Z,5.27
2019-01-10T18:03:12.572Z,5.80
2019-01-10T18:05:43.012Z,5.27
2019-01-10T18:08:32.362Z,5.47
2019-01-10T18:11:01.860Z,4.67
2019-01-10T18:13:32.558Z,5.40
2019-01-10T18:16:03.069Z,4.27
2019-01-10T18:18:33.480Z,4.43
2019-01-10T18:21:03.383Z,5.70
2019-01-10T18:23:33.672Z,4.87
2019-01-10T18:26:04.325Z,4.77
2019-01-10T18:28:34.975Z,3.87
2019-01-10T18:31:05.283Z,4.27
2019-01-10T18:33:35.951Z,3.80
2019-01-10T18:36:09.893Z,4.07
2019-01-10T18:38:40.919Z,3.37
2019-01-10T18:41:12.001Z,4.10
2019-01-10T18:43:42.470Z,4.30
2019-01-10T18:46:31.828Z,4.50
2019-01-10T18:49:02.839Z,4.27
2019-01-10T18:51:33.426Z,3.93
2019-01-10T18:54:04.190Z,3.10
2019-01-10T18:56:34.748Z,3.47
2019-01-10T18:59:05.304Z,3.90
2019-01-10T19:01:35.955Z,3.90
2019-01-10T19:04:06.351Z,3.57
2019-01-10T19:06:36.587Z,4.10
2019-01-10T19:09:12.052Z,4.13
2019-01-10T19:11:42.504Z,4.30
2019-01-10T19:14:13.113Z,4.20
2019-01-10T19:16:43.415Z,4.00
2019-01-10T19:19:13.227Z,4.33
2019-01-10T19:21:44.008Z,3.80
2019-01-10T19:24:14.071Z,6.20
2019-01-10T19:26:45.413Z,3.97
2019-01-10T19:29:15.736Z,4.00
2019-01-10T19:31:46.351Z,4.20
2019-01-10T19:34:17.642Z,4.70
2019-01-10T19:37:06.258Z,3.83
2019-01-10T19:39:36.751Z,4.27
2019-01-10T19:42:07.677Z,4.37
2019-01-10T19:44:38.333Z,4.23
2019-01-10T19:47:09.222Z,4.23
2019-01-10T19:49:39.263Z,3.77
2019-01-10T19:52:09.593Z,3.70
2019-01-10T19:54:57.228Z,4.90
2019-01-10T19:57:27.951Z,5.80
2019-01-10T19:59:58.892Z,7.07
2019-01-10T20:02:29.810Z,7.60
2019-01-10T20:05:00.555Z,6.80
2019-01-10T20:07:32.337Z,6.80
2019-01-10T20:10:03.037Z,4.43
2019-01-10T20:12:34.010Z,5.17
2019-01-10T20:15:04.982Z,4.60
2019-01-10T20:17:41.970Z,4.53
2019-01-10T20:20:21.056Z,4.20
2019-01-10T20:22:51.293Z,3.70
2019-01-10T20:25:21.731Z,3.93
2019-01-10T20:27:52.442Z,3.93
2019-01-10T20:30:22.612Z,3.83
2019-01-10T20:32:53.005Z,4.57
2019-01-10T20:35:24.951Z,4.37
2019-01-10T20:37:56.362Z,3.43
2019-01-10T20:40:27.168Z,3.83
2019-01-10T20:42:58.328Z,3.60
2019-01-10T20:45:47.677Z,4.60
2019-01-10T20:48:22.410Z,3.60
2019-01-10T20:50:51.780Z,4.67
2019-01-10T20:53:22.369Z,4.70
2019-01-10T20:55:52.874Z,6.93
2019-01-10T20:58:23.404Z,4.10
2019-01-10T21:00:54.174Z,3.90
2019-01-10T21:03:24.795Z,4.50
2019-01-10T21:05:55.307Z,6.13
2019-01-10T21:08:25.339Z,4.17
2019-01-10T21:10:55.879Z,5.37
2019-01-10T21:13:26.260Z,4.40
2019-01-10T21:15:58.415Z,10.17
2019-01-10T21:18:28.877Z,10.33
2019-01-10T21:20:59.453Z,8.93
2019-01-10T21:23:29.770Z,9.10
2019-01-10T21:26:18.679Z,9.17
2019-01-10T21:28:48.893Z,7.20
2019-01-10T21:31:19.907Z,8.13
2019-01-10T21:33:50.175Z,8.50
2019-01-10T21:36:20.733Z,6.37
2019-01-10T21:38:51.192Z,8.00
2019-01-10T21:41:20.770Z,7.77
2019-01-10T21:43:50.657Z,7.10
2019-01-10T21:46:22.060Z,6.47
2019-01-10T21:48:52.351Z,5.57
2019-01-10T21:51:22.668Z,5.00
2019-01-10T21:53:52.909Z,4.23
2019-01-10T21:56:24.245Z,4.00
2019-01-10T21:58:54.501Z,3.90
2019-01-10T22:01:25.187Z,5.00
2019-01-10T22:03:55.976Z,4.73
2019-01-10T22:06:26.519Z,4.30
2019-01-10T22:08:57.213Z,4.57
2019-01-10T22:11:27.867Z,4.70
2019-01-10T22:14:17.195Z,3.77
2019-01-10T22:16:47.166Z,4.10
2019-01-10T22:19:17.340Z,3.10
2019-01-10T22:21:47.975Z,1.70
2019-01-10T22:24:18.360Z,1.90
2019-01-10T22:26:48.587Z,2.80
2019-01-10T22:29:19.254Z,4.10
2019-01-10T22:31:49.569Z,4.27
2019-01-10T22:34:20.259Z,3.80
2019-01-10T22:36:50.815Z,3.90
2019-01-10T22:39:21.038Z,3.67
2019-01-10T22:41:51.810Z,4.70
2019-01-10T22:44:22.312Z,5.10
2019-01-10T22:46:52.888Z,5.07
2019-01-10T22:49:23.234Z,5.37
2019-01-10T22:51:53.691Z,4.80
2019-01-10T22:54:23.559Z,4.70
2019-01-10T22:56:54.311Z,5.07
2019-01-10T22:59:24.930Z,4.50
2019-01-10T23:01:58.137Z,4.43
2019-01-10T23:04:32.654Z,4.80
2019-01-10T23:07:02.887Z,4.60
2019-01-10T23:09:32.682Z,4.30
2019-01-10T23:12:03.273Z,4.57
2019-01-10T23:14:33.959Z,4.10
2019-01-10T23:17:04.331Z,4.40
2019-01-10T23:19:34.755Z,3.97
2019-01-10T23:22:12.753Z,4.20
2019-01-10T23:24:42.531Z,5.57
2019-01-10T23:27:12.503Z,5.37
2019-01-10T23:29:42.715Z,4.33
2019-01-10T23:32:16.612Z,4.60
2019-01-10T23:34:53.793Z,4.20
2019-01-10T23:37:26.557Z,5.10
2019-01-10T23:39:57.330Z,3.73
2019-01-10T23:42:27.754Z,3.90
2019-01-10T23:44:58.055Z,3.67
2019-01-10T23:47:28.374Z,2.90
2019-01-10T23:49:58.957Z,3.00
2019-01-10T23:52:30.015Z,3.60
2019-01-10T23:55:00.628Z,2.97
2019-01-10T23:57:30.493Z,3.00
